Brochet, Canada
Current Conditions -  °F | °C
As of 12:00 AM on Saturday 29 Nov 2014 (Local Time) from CYYL Reporting Station
Overcast Overcast  
Wind Chill: -25°   Ceiling: 7000
Heat Index: -13°   Visibility: 9mi
Dew Point: -18°   Wind: 5mph
Humidity: 77%   Direction: 300°WNW
Pressure: 29.84"   Gusts: NA
Location:  57.88°N, 101.67°W
Report Text: CYYL 290600Z AUTO 30004KT 9SM OVC070 M25/M28 A2984 RMK SLP153
Loading
Personal Weather Stations






























Interactive Weather Map New forecast layout! Learn more

10-Day Weather Forecast

Advertisements
Track Severe Weather on mobile